aviador You're here:

KFFC Decoded Metar

PEACHTREE CITY in GA, USA
Report Time2018-07-16 08:26:00
UTC Time2018-07-16 08:37:42
Flight Rules ifr IFR
WindCalm
Visibility9656 m
Phenomena:Mist
Clouds:Broken 007 Hf
Expected CloudBase > 400 ft AGL from Temp-Dew spread
Ceiling700 ft
Temp24°C (ISA +11)
Dew Point23°C (94% RH)
QNH1017 hPa
Density Alt2,339 ft
Elevation860 ft
Report Wrong Elevation
Raw Report
KFFC 160826Z AUTO 00000KT 6SM BR BKN007 24/23 A3003 RMK AO2
T02390233=

Extra information for KFFC:More info

Metar Taf Metar & Taf Last 4 Metars F.Rules Stats Wind Profile Meteogram Temp Stats Airport Information Weather charts Add Link Nearby VenuesMetar ALERT Operation Metar Decoded Social comments

AIRNAV info for KFFC